KIMT/IMT METAR and TAF weather

Enter ICAO airport designator
Station Type Date Time Source
KIMT METAR 2023/02/06 17:54 UTC NOAA

KIMT 061754Z AUTO 16008G17KT 10SM OVC019 M03/M07 A3008 RMK AO2 SLP206 T10331072 11033 21078 58019


Station Type Date Time Source
KIMT Decoded METAR 2023/02/06 17:54 UTC NOAA

IRON MOUNTAIN FORD AIRPORT, MI, United States (KIMT) 45-49N 88-07W 349M
Feb 06, 2023 - 12:54 PM EST / 2023.02.06 1754 UTC
Wind: from the SSE (160 degrees) at 9 MPH (8 KT) gusting to 20 MPH (17 KT):0
Visibility: 10 mile(s):0
Sky conditions: overcast
Temperature: 26.1 F (-3.3 C)
Windchill: 17 F (-8 C):1
Dew Point: 19.0 F (-7.2 C)
Relative Humidity: 74%
Pressure (altimeter): 30.08 in. Hg (1018 hPa)
Pressure tendency: 0.06 inches (1.9 hPa) lower than three hours ago
ob: KIMT 061754Z AUTO 16008G17KT 10SM OVC019 M03/M07 A3008 RMK AO2 SLP206 T10331072 11033 21078 58019
cycle: 18

Station Type Date Time Source
KIMT TAF UTC NOAA

Error!

Example: see airport list